createdAt,value
2023-02-17T05:12:40.230Z,100.00
2023-02-17T05:15:44.967Z,100.00
2023-02-17T05:18:47.694Z,100.00
2023-02-17T05:21:51.540Z,100.00
2023-02-17T05:24:54.330Z,100.00
2023-02-17T05:27:57.225Z,100.00
2023-02-17T05:31:01.062Z,100.00
2023-02-17T05:34:04.239Z,100.00
2023-02-17T05:37:06.835Z,100.00
2023-02-17T05:40:11.103Z,100.00
2023-02-17T05:43:13.698Z,100.00
2023-02-17T05:46:17.596Z,100.00
2023-02-17T05:49:20.205Z,100.00
2023-02-17T05:52:23.295Z,100.00
2023-02-17T05:55:25.854Z,100.00
2023-02-17T05:58:28.760Z,100.00
2023-02-17T06:01:31.459Z,100.00
2023-02-17T06:04:34.303Z,100.00
2023-02-17T06:07:37.001Z,100.00
2023-02-17T06:10:42.172Z,100.00
2023-02-17T06:13:44.749Z,100.00
2023-02-17T06:16:47.727Z,100.00
2023-02-17T06:19:50.511Z,100.00
2023-02-17T06:22:53.356Z,100.00
2023-02-17T06:25:56.279Z,100.00
2023-02-17T06:28:59.194Z,100.00
2023-02-17T06:32:01.922Z,100.00
2023-02-17T06:35:05.032Z,100.00
2023-02-17T06:38:07.928Z,100.00
2023-02-17T06:41:10.874Z,100.00
2023-02-17T06:44:13.428Z,100.00
2023-02-17T06:47:19.223Z,100.00
2023-02-17T06:50:21.970Z,100.00
2023-02-17T06:53:24.844Z,100.00
2023-02-17T06:56:27.480Z,100.00
2023-02-17T06:59:33.117Z,100.00
2023-02-17T07:02:38.814Z,100.00
2023-02-17T07:05:41.951Z,100.00
2023-02-17T07:08:45.089Z,100.00
2023-02-17T07:11:49.442Z,100.00
2023-02-17T07:14:52.350Z,100.00
2023-02-17T07:17:55.374Z,100.00
2023-02-17T07:20:58.417Z,100.00
2023-02-17T07:24:01.508Z,100.00
2023-02-17T07:27:06.172Z,100.00
2023-02-17T07:30:09.615Z,100.00
2023-02-17T07:33:12.191Z,100.00
2023-02-17T07:36:17.214Z,100.00
2023-02-17T07:39:19.853Z,100.00
2023-02-17T07:42:24.358Z,100.00
2023-02-17T07:45:27.862Z,100.00
2023-02-17T07:48:31.518Z,100.00
2023-02-17T07:51:34.521Z,100.00
2023-02-17T07:54:37.482Z,100.00
2023-02-17T07:57:40.263Z,100.00
2023-02-17T08:00:43.375Z,100.00
2023-02-17T08:03:47.813Z,100.00
2023-02-17T08:06:51.402Z,100.00
2023-02-17T08:10:12.927Z,99.80
2023-02-17T08:13:21.568Z,95.28
2023-02-17T08:16:26.926Z,94.84
2023-02-17T08:19:42.870Z,91.68
2023-02-17T08:22:49.993Z,90.20
2023-02-17T08:25:53.056Z,88.79
2023-02-17T08:28:56.565Z,89.55
2023-02-17T08:31:59.218Z,84.46
2023-02-17T08:35:02.248Z,83.33
2023-02-17T08:38:04.955Z,82.96
2023-02-17T08:41:26.748Z,80.94
2023-02-17T08:44:29.476Z,79.29
2023-02-17T08:47:32.409Z,81.32
2023-02-17T08:50:35.220Z,80.74
2023-02-17T08:53:38.134Z,79.45
2023-02-17T08:56:41.931Z,77.43
2023-02-17T08:59:48.125Z,73.24
2023-02-17T09:02:50.895Z,65.63
2023-02-17T09:05:56.211Z,62.63
2023-02-17T09:08:59.799Z,61.62
2023-02-17T09:12:02.754Z,59.99
2023-02-17T09:15:06.287Z,60.66
2023-02-17T09:18:09.589Z,57.61
2023-02-17T09:21:13.702Z,56.07
2023-02-17T09:24:17.549Z,54.74
2023-02-17T09:27:20.605Z,50.40
2023-02-17T09:30:23.879Z,46.90
2023-02-17T09:33:27.242Z,42.29
2023-02-17T09:36:38.388Z,41.88
2023-02-17T09:39:41.027Z,41.79
2023-02-17T09:42:44.064Z,43.37
2023-02-17T09:45:58.993Z,44.25
2023-02-17T09:49:12.655Z,45.08
2023-02-17T09:52:29.592Z,48.25
2023-02-17T09:55:41.340Z,46.91
2023-02-17T09:58:50.470Z,45.77
2023-02-17T10:01:55.622Z,45.93
2023-02-17T10:05:05.788Z,47.21
2023-02-17T10:08:18.257Z,47.83
2023-02-17T10:11:35.790Z,48.26
2023-02-17T10:14:41.287Z,48.91
2023-02-17T10:18:06.164Z,49.06
2023-02-17T10:21:22.109Z,49.20
2023-02-17T10:24:25.953Z,49.49
2023-02-17T10:27:41.590Z,50.43
2023-02-17T10:31:10.290Z,49.95
2023-02-17T10:34:26.348Z,50.27
2023-02-17T10:38:09.273Z,49.04
2023-02-17T10:41:17.680Z,49.36
2023-02-17T10:44:25.027Z,50.01
2023-02-17T10:47:27.877Z,50.62
2023-02-17T10:50:31.372Z,51.33
2023-02-17T10:53:40.780Z,51.41
2023-02-17T10:56:52.922Z,51.68
2023-02-17T10:59:55.818Z,51.72
2023-02-17T11:02:58.945Z,52.79
2023-02-17T11:06:04.985Z,53.94
2023-02-17T11:09:33.457Z,55.31
2023-02-17T11:12:41.459Z,55.71
2023-02-17T11:15:46.559Z,56.13
2023-02-17T11:18:50.196Z,56.43
2023-02-17T11:21:55.225Z,56.99
2023-02-17T11:24:59.876Z,57.69
2023-02-17T11:28:07.434Z,56.24
2023-02-17T11:31:31.765Z,56.31
2023-02-17T11:34:37.678Z,56.30
2023-02-17T11:37:43.414Z,57.12
2023-02-17T11:40:59.397Z,55.90
2023-02-17T11:44:02.033Z,56.35
2023-02-17T11:47:04.799Z,55.15
2023-02-17T11:50:41.987Z,54.15
2023-02-17T11:53:50.719Z,55.22
2023-02-17T11:57:02.538Z,55.43
2023-02-17T12:00:22.151Z,55.36
2023-02-17T12:03:53.371Z,54.56
2023-02-17T12:07:15.311Z,54.57
2023-02-17T12:10:27.391Z,54.78
2023-02-17T12:13:55.598Z,55.89
2023-02-17T12:17:13.918Z,56.88
2023-02-17T12:20:38.106Z,57.63
2023-02-17T12:24:10.110Z,58.56
2023-02-17T12:27:33.114Z,59.46
2023-02-17T12:30:54.981Z,60.94
2023-02-17T12:34:06.684Z,61.19
2023-02-17T12:37:22.798Z,61.59
2023-02-17T12:40:57.518Z,62.09
2023-02-17T12:44:07.067Z,61.59
2023-02-17T12:47:17.713Z,60.68
2023-02-17T12:50:32.931Z,59.78
2023-02-17T12:53:41.326Z,59.60
2023-02-17T12:56:55.066Z,59.23
2023-02-17T13:00:00.562Z,58.26
2023-02-17T13:03:05.048Z,57.57
2023-02-17T13:06:34.297Z,57.43
2023-02-17T13:09:42.652Z,57.12
2023-02-17T13:12:59.702Z,56.80
2023-02-17T13:16:14.216Z,56.63
2023-02-17T13:19:28.443Z,57.73
2023-02-17T13:22:31.836Z,57.85
2023-02-17T13:25:37.750Z,60.41
2023-02-17T13:28:41.727Z,60.74
2023-02-17T13:31:50.801Z,61.14
2023-02-17T13:35:20.751Z,61.72
2023-02-17T13:38:31.553Z,60.75
2023-02-17T13:41:46.886Z,60.49
2023-02-17T13:44:51.370Z,61.00
2023-02-17T13:47:59.313Z,60.56
2023-02-17T13:51:04.164Z,61.07
2023-02-17T13:54:09.280Z,61.18
2023-02-17T13:57:27.974Z,61.15
2023-02-17T14:00:32.268Z,61.56
2023-02-17T14:03:56.487Z,62.48
2023-02-17T14:07:01.079Z,63.07
2023-02-17T14:10:05.187Z,63.39
2023-02-17T14:13:11.124Z,62.99
2023-02-17T14:16:35.806Z,64.05
2023-02-17T14:19:46.656Z,63.77
2023-02-17T14:23:04.222Z,64.08
2023-02-17T14:26:26.067Z,64.22
2023-02-17T14:29:42.536Z,65.01
2023-02-17T14:32:45.325Z,65.55
2023-02-17T14:35:57.525Z,68.75
2023-02-17T14:39:02.732Z,66.63
2023-02-17T14:42:05.867Z,65.42
2023-02-17T14:45:09.016Z,65.90
2023-02-17T14:48:12.009Z,67.14
2023-02-17T14:51:20.937Z,67.36
2023-02-17T14:54:26.851Z,68.77
2023-02-17T14:57:30.226Z,69.82
2023-02-17T15:00:33.212Z,70.79
2023-02-17T15:03:36.410Z,71.53
2023-02-17T15:06:43.488Z,73.83
2023-02-17T15:09:48.112Z,76.20
2023-02-17T15:12:51.621Z,76.90
2023-02-17T15:15:54.489Z,77.52
2023-02-17T15:18:58.225Z,78.37
2023-02-17T15:22:02.279Z,79.96
2023-02-17T15:25:11.976Z,81.34
2023-02-17T15:28:16.738Z,82.26
2023-02-17T15:31:21.358Z,83.91
2023-02-17T15:34:30.823Z,84.05
2023-02-17T15:37:34.414Z,83.66
2023-02-17T15:40:37.159Z,83.97
2023-02-17T15:43:41.013Z,84.88
2023-02-17T15:46:47.423Z,84.93
2023-02-17T15:49:50.441Z,85.28
2023-02-17T15:52:53.039Z,87.25
2023-02-17T15:55:56.998Z,88.76
2023-02-17T15:59:04.744Z,90.92
2023-02-17T16:02:21.111Z,92.37
2023-02-17T16:05:27.308Z,91.26
2023-02-17T16:08:30.098Z,90.43
2023-02-17T16:11:34.266Z,90.27
2023-02-17T16:14:38.123Z,92.01
2023-02-17T16:17:41.659Z,92.88
2023-02-17T16:20:44.281Z,94.39
2023-02-17T16:23:47.128Z,95.05
2023-02-17T16:26:50.079Z,95.95
2023-02-17T16:29:52.972Z,97.96
2023-02-17T16:32:55.904Z,98.66
2023-02-17T16:35:58.861Z,99.01
2023-02-17T16:39:10.439Z,99.19
2023-02-17T16:42:15.370Z,98.99
2023-02-17T16:45:22.082Z,98.61
2023-02-17T16:48:28.035Z,97.52
2023-02-17T16:51:30.856Z,95.08
2023-02-17T16:54:35.694Z,95.06
2023-02-17T16:57:38.542Z,94.71
2023-02-17T17:00:42.090Z,92.56
2023-02-17T17:03:45.132Z,90.53
2023-02-17T17:06:50.743Z,88.36
2023-02-17T17:10:15.170Z,88.67
2023-02-17T17:13:16.999Z,89.57
2023-02-17T17:16:24.751Z,89.73
2023-02-17T17:19:27.674Z,89.93
2023-02-17T17:22:30.451Z,90.25
2023-02-17T17:25:38.549Z,89.37
2023-02-17T17:28:41.434Z,90.21
2023-02-17T17:31:45.333Z,89.83
2023-02-17T17:34:52.021Z,90.96
2023-02-17T17:37:57.389Z,91.37
2023-02-17T17:41:00.254Z,92.17
2023-02-17T17:44:03.382Z,92.22
2023-02-17T17:47:06.151Z,93.55
2023-02-17T17:50:16.844Z,94.81
2023-02-17T17:53:19.734Z,95.46
2023-02-17T17:56:28.919Z,96.52
2023-02-17T17:59:31.979Z,96.23
2023-02-17T18:02:35.585Z,96.91
2023-02-17T18:05:38.936Z,97.13
2023-02-17T18:08:43.866Z,97.64
2023-02-17T18:11:47.250Z,98.37
2023-02-17T18:14:54.258Z,98.84
2023-02-17T18:17:57.545Z,98.64
2023-02-17T18:21:00.526Z,98.75
2023-02-17T18:24:04.199Z,98.57
2023-02-17T18:27:07.218Z,97.94
2023-02-17T18:30:20.420Z,97.64
2023-02-17T18:33:26.108Z,98.37
2023-02-17T18:36:30.332Z,98.69
2023-02-17T18:39:33.820Z,98.39
2023-02-17T18:42:38.407Z,98.53
2023-02-17T18:45:41.849Z,100.00
2023-02-17T18:48:46.129Z,100.00
2023-02-17T18:51:48.921Z,100.00
2023-02-17T18:54:52.389Z,100.00
2023-02-17T18:57:55.954Z,100.00
2023-02-17T19:00:59.117Z,100.00
2023-02-17T19:04:02.253Z,100.00
2023-02-17T19:07:07.002Z,100.00
2023-02-17T19:10:11.515Z,100.00
2023-02-17T19:13:15.134Z,100.00
2023-02-17T19:16:27.202Z,100.00
2023-02-17T19:19:31.936Z,100.00
2023-02-17T19:22:37.911Z,100.00
2023-02-17T19:25:40.928Z,100.00
2023-02-17T19:28:44.218Z,100.00
2023-02-17T19:31:49.378Z,100.00
2023-02-17T19:34:53.411Z,100.00
2023-02-17T19:37:56.715Z,100.00
2023-02-17T19:41:02.343Z,100.00
2023-02-17T19:44:06.858Z,100.00
2023-02-17T19:47:10.610Z,100.00
2023-02-17T19:50:15.135Z,100.00
2023-02-17T19:53:19.226Z,100.00
2023-02-17T19:56:25.647Z,100.00
2023-02-17T19:59:31.715Z,100.00
2023-02-17T20:02:36.694Z,100.00
2023-02-17T20:05:41.270Z,100.00
2023-02-17T20:08:46.404Z,100.00
2023-02-17T20:11:53.382Z,100.00
2023-02-17T20:14:56.647Z,100.00
2023-02-17T20:17:59.946Z,100.00
2023-02-17T20:21:03.928Z,100.00
2023-02-17T20:24:07.259Z,100.00
2023-02-17T20:27:11.014Z,100.00
2023-02-17T20:30:16.859Z,100.00
2023-02-17T20:33:21.445Z,100.00
2023-02-17T20:36:32.783Z,100.00
2023-02-17T20:39:36.818Z,100.00
2023-02-17T20:42:40.607Z,100.00
2023-02-17T20:45:44.892Z,100.00
2023-02-17T20:48:49.015Z,100.00
2023-02-17T20:51:51.844Z,100.00
2023-02-17T20:54:55.110Z,100.00
2023-02-17T20:57:57.834Z,100.00
2023-02-17T21:01:01.044Z,100.00
2023-02-17T21:04:03.857Z,100.00
2023-02-17T21:07:07.808Z,96.44
2023-02-17T21:10:22.624Z,90.99
2023-02-17T21:13:25.767Z,86.20
2023-02-17T21:16:31.126Z,80.85
2023-02-17T21:19:34.672Z,78.27
2023-02-17T21:22:37.544Z,75.55
2023-02-17T21:25:40.641Z,73.61
2023-02-17T21:28:43.701Z,75.81
2023-02-17T21:31:46.892Z,75.58
2023-02-17T21:34:49.510Z,77.49
2023-02-17T21:37:52.659Z,75.83
2023-02-17T21:40:56.100Z,74.28
2023-02-17T21:44:18.622Z,74.21
2023-02-17T21:47:22.441Z,72.89
2023-02-17T21:50:27.246Z,72.16
2023-02-17T21:53:29.987Z,72.34
2023-02-17T21:56:33.633Z,72.18
2023-02-17T21:59:36.869Z,72.39
2023-02-17T22:02:40.339Z,72.75
2023-02-17T22:05:43.158Z,73.57
2023-02-17T22:08:46.915Z,73.86
2023-02-17T22:11:50.044Z,74.81
2023-02-17T22:14:52.760Z,75.20
2023-02-17T22:17:55.625Z,76.68
2023-02-17T22:20:58.408Z,77.01
2023-02-17T22:24:04.149Z,77.23
2023-02-17T22:27:06.832Z,77.94
2023-02-17T22:30:13.605Z,79.29
2023-02-17T22:33:16.809Z,79.90
2023-02-17T22:36:22.653Z,80.80
2023-02-17T22:39:25.374Z,83.99
2023-02-17T22:42:29.037Z,83.21
2023-02-17T22:45:32.007Z,83.39
2023-02-17T22:48:37.629Z,84.00
2023-02-17T22:51:40.999Z,84.02
2023-02-17T22:54:44.381Z,83.31
2023-02-17T22:57:47.886Z,82.72
2023-02-17T23:00:52.205Z,82.88
2023-02-17T23:03:55.783Z,82.66
2023-02-17T23:06:59.113Z,83.15
2023-02-17T23:10:01.833Z,83.18
2023-02-17T23:13:05.844Z,82.53
2023-02-17T23:16:13.755Z,82.42
2023-02-17T23:19:19.568Z,83.37
2023-02-17T23:22:22.278Z,83.60
2023-02-17T23:25:25.675Z,83.16
2023-02-17T23:28:29.717Z,83.85
2023-02-17T23:31:34.206Z,84.52
2023-02-17T23:34:38.791Z,85.08
2023-02-17T23:37:43.552Z,84.27
2023-02-17T23:40:51.482Z,85.25
2023-02-17T23:43:55.196Z,85.65
2023-02-17T23:46:57.781Z,86.32
2023-02-17T23:50:00.886Z,86.54
2023-02-17T23:53:05.458Z,86.02
2023-02-17T23:56:22.148Z,85.76
2023-02-17T23:59:24.622Z,85.20
